createdAt,value
2018-04-16T00:01:18.723Z,1.20
2018-04-16T00:02:18.641Z,0.16
2018-04-16T00:03:18.739Z,0.60
2018-04-16T00:04:18.751Z,1.92
2018-04-16T00:05:18.818Z,2.32
2018-04-16T00:06:18.823Z,2.60
2018-04-16T00:07:18.543Z,1.12
2018-04-16T00:08:18.665Z,1.80
2018-04-16T00:09:18.661Z,1.52
2018-04-16T00:10:18.755Z,0.56
2018-04-16T00:11:18.781Z,0.48
2018-04-16T00:12:21.007Z,0.20
2018-04-16T00:13:18.656Z,1.48
2018-04-16T00:14:18.547Z,1.60
2018-04-16T00:15:21.048Z,0.12
2018-04-16T00:16:18.786Z,0.40
2018-04-16T00:17:18.851Z,0.28
2018-04-16T00:18:18.915Z,0.00
2018-04-16T00:19:21.044Z,0.12
2018-04-16T00:20:18.563Z,1.16
2018-04-16T00:21:18.909Z,2.40
2018-04-16T00:22:19.017Z,1.00
2018-04-16T00:23:19.032Z,2.12
2018-04-16T00:24:18.912Z,2.60
2018-04-16T00:25:18.879Z,2.04
2018-04-16T00:26:21.005Z,0.08
2018-04-16T00:27:18.935Z,2.80
2018-04-16T00:28:18.956Z,3.08
2018-04-16T00:29:18.990Z,1.88
2018-04-16T00:30:19.055Z,0.92
2018-04-16T00:31:20.997Z,0.16
2018-04-16T00:32:19.055Z,1.92
2018-04-16T00:33:18.612Z,2.76
2018-04-16T00:34:18.738Z,3.04
2018-04-16T00:35:18.716Z,2.68
2018-04-16T00:36:18.782Z,1.28
2018-04-16T00:37:18.768Z,2.00
2018-04-16T00:38:18.763Z,1.96
2018-04-16T00:39:18.830Z,0.88
2018-04-16T00:40:21.056Z,0.08
2018-04-16T00:41:18.759Z,1.32
2018-04-16T00:42:21.003Z,0.12
2018-04-16T00:43:18.616Z,1.72
2018-04-16T00:44:18.584Z,1.76
2018-04-16T00:45:18.615Z,1.48
2018-04-16T00:46:19.004Z,2.20
2018-04-16T00:47:18.957Z,2.40
2018-04-16T00:48:18.577Z,2.28
2018-04-16T00:49:21.052Z,0.04
2018-04-16T00:50:18.647Z,0.48
2018-04-16T00:51:18.719Z,0.76
2018-04-16T00:52:21.067Z,0.08
2018-04-16T00:53:21.494Z,0.20
2018-04-16T00:54:18.706Z,1.44
2018-04-16T00:55:18.843Z,0.56
2018-04-16T00:56:18.856Z,1.44
2018-04-16T00:57:18.931Z,1.12
2018-04-16T00:58:21.064Z,0.16
2018-04-16T00:59:20.987Z,0.08
2018-04-16T01:00:18.151Z,1.44
2018-04-16T01:01:20.995Z,0.08
2018-04-16T01:02:18.560Z,1.04
2018-04-16T01:03:18.744Z,0.64
2018-04-16T01:04:18.956Z,1.08
2018-04-16T01:05:18.955Z,1.36
2018-04-16T01:06:18.906Z,1.16
2018-04-16T01:07:19.052Z,1.00
2018-04-16T01:08:21.043Z,0.12
2018-04-16T01:09:19.034Z,1.48
2018-04-16T01:10:18.551Z,2.04
2018-04-16T01:11:18.958Z,1.12
2018-04-16T01:12:18.911Z,0.56
2018-04-16T01:13:21.064Z,0.12
2018-04-16T01:14:18.942Z,1.44
2018-04-16T01:15:21.026Z,0.08
2018-04-16T01:16:21.000Z,0.04
2018-04-16T01:17:56.654Z,0.24
2018-04-16T01:18:56.503Z,0.08
2018-04-16T01:19:56.460Z,1.24
2018-04-16T01:20:56.575Z,0.88
2018-04-16T01:21:58.810Z,0.12
2018-04-16T01:22:56.563Z,1.12
2018-04-16T01:23:56.580Z,0.60
2018-04-16T01:24:58.803Z,0.16
2018-04-16T01:25:56.750Z,0.56
2018-04-16T01:26:58.875Z,0.00
2018-04-16T01:27:58.797Z,0.00
2018-04-16T01:28:58.821Z,0.04
2018-04-16T01:29:56.662Z,0.16
2018-04-16T01:30:58.782Z,0.00
2018-04-16T01:31:58.818Z,0.04
2018-04-16T01:32:58.847Z,0.00
2018-04-16T01:33:58.875Z,0.16
2018-04-16T01:34:56.509Z,0.56
2018-04-16T01:35:56.711Z,0.76
2018-04-16T01:36:58.844Z,0.16
2018-04-16T01:37:56.654Z,1.40
2018-04-16T01:38:56.536Z,0.76
2018-04-16T01:39:56.707Z,0.56
2018-04-16T01:40:58.847Z,0.04
2018-04-16T01:41:56.604Z,1.00
2018-04-16T01:42:56.690Z,0.84
2018-04-16T01:43:56.755Z,1.00
2018-04-16T01:44:56.647Z,1.76
2018-04-16T01:45:56.544Z,2.40
2018-04-16T01:46:56.696Z,2.68
2018-04-16T01:47:58.819Z,0.36
2018-04-16T01:48:56.512Z,2.04
2018-04-16T01:49:56.460Z,2.36
2018-04-16T01:50:56.871Z,1.48
2018-04-16T01:51:58.892Z,0.04
2018-04-16T01:52:56.650Z,1.96
2018-04-16T01:53:56.550Z,1.32
2018-04-16T01:54:56.770Z,1.04
2018-04-16T01:55:58.858Z,0.04
2018-04-16T01:56:56.730Z,1.12
2018-04-16T01:57:56.638Z,0.80
2018-04-16T02:00:13.191Z,0.12
2018-04-16T02:01:10.683Z,1.36
2018-04-16T02:02:10.750Z,1.40
2018-04-16T02:03:10.790Z,0.52
2018-04-16T02:04:11.055Z,0.88
2018-04-16T02:05:11.075Z,0.64
2018-04-16T02:06:11.135Z,1.20
2018-04-16T02:07:11.147Z,1.36
2018-04-16T02:08:13.184Z,0.20
2018-04-16T02:09:11.171Z,1.40
2018-04-16T02:10:10.661Z,0.68
2018-04-16T02:11:11.098Z,1.44
2018-04-16T02:12:13.739Z,1.48
2018-04-16T02:13:10.795Z,0.32
2018-04-16T02:14:10.903Z,0.28
2018-04-16T02:15:13.132Z,0.12
2018-04-16T02:16:10.849Z,0.84
2018-04-16T02:17:10.827Z,0.20
2018-04-16T02:18:10.695Z,0.40
2018-04-16T02:19:11.088Z,0.40
2018-04-16T02:20:10.915Z,0.72
2018-04-16T02:21:10.826Z,0.84
2018-04-16T02:22:13.123Z,0.00
2018-04-16T02:23:10.955Z,0.60
2018-04-16T02:24:11.093Z,0.12
2018-04-16T02:25:10.635Z,0.08
2018-04-16T02:26:11.116Z,0.40
2018-04-16T02:27:10.722Z,0.08
2018-04-16T02:28:11.156Z,0.36
2018-04-16T02:29:11.203Z,1.24
2018-04-16T02:30:10.885Z,1.60
2018-04-16T02:31:10.688Z,0.92
2018-04-16T02:32:11.073Z,1.12
2018-04-16T02:33:10.623Z,1.24
2018-04-16T02:34:10.747Z,2.00
2018-04-16T02:35:11.004Z,0.68
2018-04-16T02:36:11.028Z,1.56
2018-04-16T02:37:11.071Z,0.40
2018-04-16T02:38:11.029Z,0.56
2018-04-16T02:39:10.895Z,0.40
2018-04-16T02:40:10.939Z,0.68
2018-04-16T02:41:11.074Z,0.16
2018-04-16T02:42:10.962Z,0.64
2018-04-16T02:43:11.109Z,0.96
2018-04-16T02:44:11.059Z,0.84
2018-04-16T02:45:13.221Z,0.20
2018-04-16T02:46:13.159Z,0.08
2018-04-16T02:47:13.207Z,0.16
2018-04-16T02:48:11.211Z,1.40
2018-04-16T02:49:13.139Z,0.04
2018-04-16T02:50:13.134Z,0.04
2018-04-16T02:51:10.708Z,0.00
2018-04-16T02:52:11.146Z,0.56
2018-04-16T02:53:11.088Z,0.88
2018-04-16T02:54:11.048Z,1.96
2018-04-16T02:55:13.172Z,0.12
2018-04-16T02:56:13.215Z,0.04
2018-04-16T02:57:11.108Z,2.24
2018-04-16T02:58:13.151Z,0.00
2018-04-16T02:59:10.423Z,1.24
2018-04-16T03:00:10.898Z,1.00
2018-04-16T03:01:10.860Z,1.28
2018-04-16T03:02:10.903Z,2.04
2018-04-16T03:03:10.913Z,1.00
2018-04-16T03:04:10.863Z,0.44
2018-04-16T03:05:10.792Z,2.12
2018-04-16T03:06:11.161Z,1.08
2018-04-16T03:07:11.058Z,1.40
2018-04-16T03:08:11.085Z,2.12
2018-04-16T03:09:10.771Z,1.72
2018-04-16T03:10:11.025Z,1.60
2018-04-16T03:11:13.152Z,0.20
2018-04-16T03:12:10.744Z,1.88
2018-04-16T03:13:11.128Z,2.64
2018-04-16T03:14:11.092Z,1.52
2018-04-16T03:15:13.219Z,0.16
2018-04-16T03:16:10.801Z,1.48
2018-04-16T03:17:11.169Z,2.48
2018-04-16T03:18:11.080Z,1.84
2018-04-16T03:19:13.240Z,0.16
2018-04-16T03:20:10.734Z,0.56
2018-04-16T03:21:10.748Z,0.60
2018-04-16T03:22:13.203Z,0.36
2018-04-16T03:23:10.815Z,2.48
2018-04-16T03:24:10.810Z,2.00
2018-04-16T03:25:11.170Z,1.72
2018-04-16T03:26:11.080Z,1.88
2018-04-16T03:27:13.199Z,0.00
2018-04-16T03:28:13.167Z,0.28
2018-04-16T03:29:11.123Z,2.12
2018-04-16T03:30:11.137Z,0.68
2018-04-16T03:31:11.001Z,0.64
2018-04-16T03:32:11.024Z,0.64
2018-04-16T03:33:11.008Z,1.04
2018-04-16T03:34:13.160Z,0.00
2018-04-16T03:35:13.199Z,0.00
2018-04-16T03:36:10.908Z,0.00
2018-04-16T03:37:10.719Z,0.00
2018-04-16T03:38:10.764Z,0.00
2018-04-16T03:39:10.799Z,0.00
2018-04-16T03:40:11.211Z,0.00
2018-04-16T03:41:11.232Z,0.56
2018-04-16T03:42:10.874Z,0.48
2018-04-16T03:43:10.933Z,0.24
2018-04-16T03:44:10.759Z,0.60
2018-04-16T03:45:10.889Z,1.32
2018-04-16T03:46:10.945Z,0.80
2018-04-16T03:47:13.162Z,0.04
2018-04-16T03:48:10.942Z,0.04
2018-04-16T03:49:13.190Z,0.00
2018-04-16T03:50:10.991Z,0.20
2018-04-16T03:51:10.935Z,0.44
2018-04-16T03:52:10.936Z,1.64
2018-04-16T03:53:10.869Z,0.76
2018-04-16T03:54:13.175Z,0.00
2018-04-16T03:55:11.380Z,0.48
2018-04-16T03:56:10.803Z,0.52
2018-04-16T03:57:10.837Z,0.64
2018-04-16T03:58:10.803Z,0.32
2018-04-16T03:59:10.006Z,0.16
2018-04-16T04:00:10.843Z,0.32
2018-04-16T04:01:10.936Z,0.16
2018-04-16T04:02:10.908Z,0.32
2018-04-16T04:03:10.951Z,0.48
2018-04-16T04:04:11.036Z,0.28
2018-04-16T04:05:10.985Z,0.00
2018-04-16T04:06:11.027Z,0.84
2018-04-16T04:07:10.986Z,0.64
2018-04-16T04:08:10.980Z,0.16
2018-04-16T04:09:11.082Z,0.80
2018-04-16T04:10:10.988Z,0.20
2018-04-16T04:11:48.224Z,0.16
2018-04-16T04:12:47.843Z,0.12
2018-04-16T04:13:50.123Z,0.08
2018-04-16T04:14:47.991Z,0.68
2018-04-16T04:15:47.883Z,0.00
2018-04-16T04:16:47.908Z,0.04
2018-04-16T04:17:47.928Z,0.12
2018-04-16T04:18:48.194Z,0.56
2018-04-16T04:19:48.178Z,0.00
2018-04-16T04:20:47.887Z,0.52
2018-04-16T04:21:47.895Z,0.68
2018-04-16T04:22:47.828Z,0.08
2018-04-16T04:23:50.118Z,0.08
2018-04-16T04:24:47.908Z,2.28
2018-04-16T04:25:47.826Z,1.20
2018-04-16T04:26:47.780Z,0.80
2018-04-16T04:27:47.774Z,0.84
2018-04-16T04:28:48.146Z,0.84
2018-04-16T04:29:47.881Z,0.04
2018-04-16T04:30:50.162Z,0.00
2018-04-16T04:31:48.179Z,0.60
2018-04-16T04:32:48.219Z,0.04
2018-04-16T04:33:47.682Z,0.36
2018-04-16T04:34:50.113Z,0.00
2018-04-16T04:35:48.107Z,0.00
2018-04-16T04:36:48.075Z,0.00
2018-04-16T04:37:48.248Z,0.00
2018-04-16T04:38:50.179Z,0.04
2018-04-16T04:39:47.987Z,0.04
2018-04-16T04:40:48.000Z,0.00
2018-04-16T04:41:48.204Z,0.00
2018-04-16T04:43:18.249Z,0.00
2018-04-16T04:43:49.815Z,0.00
2018-04-16T04:44:49.940Z,0.00
2018-04-16T04:45:49.853Z,0.00
2018-04-16T04:46:49.817Z,0.04
2018-04-16T04:47:49.892Z,0.16
2018-04-16T04:48:49.880Z,0.36
2018-04-16T04:49:49.872Z,0.32
2018-04-16T04:51:19.302Z,0.00
2018-04-16T04:51:48.578Z,0.00
2018-04-16T04:52:48.750Z,0.00
2018-04-16T04:53:48.887Z,0.00
2018-04-16T04:54:51.038Z,0.00
2018-04-16T04:55:48.859Z,0.00
2018-04-16T04:56:51.125Z,0.04
2018-04-16T04:57:48.826Z,0.24
2018-04-16T04:58:48.980Z,0.04
2018-04-16T04:59:49.013Z,0.04
2018-04-16T05:00:51.534Z,0.04
2018-04-16T05:01:48.955Z,0.24
2018-04-16T05:02:48.906Z,0.04
2018-04-16T05:03:49.121Z,0.52
2018-04-16T05:04:48.834Z,0.12
2018-04-16T05:05:48.642Z,0.08
2018-04-16T05:06:48.739Z,0.20
2018-04-16T05:07:48.683Z,0.20
2018-04-16T05:08:48.875Z,0.00
2018-04-16T05:09:51.125Z,0.08
2018-04-16T05:10:46.921Z,0.08
2018-04-16T05:11:51.046Z,0.00
2018-04-16T05:12:48.859Z,0.04
2018-04-16T05:13:48.880Z,0.04
2018-04-16T05:14:48.917Z,0.16
2018-04-16T05:15:48.880Z,0.12
2018-04-16T05:16:48.788Z,0.04
2018-04-16T05:17:49.033Z,0.04
2018-04-16T05:18:49.046Z,0.12
2018-04-16T05:19:48.895Z,0.72
2018-04-16T05:20:48.939Z,0.32
2018-04-16T05:21:51.067Z,0.08
2018-04-16T05:22:48.855Z,0.40
2018-04-16T05:23:48.724Z,0.60
2018-04-16T05:24:48.971Z,0.12
2018-04-16T05:25:48.950Z,0.00
2018-04-16T05:26:48.802Z,0.08
2018-04-16T05:27:51.071Z,0.12
2018-04-16T05:28:51.104Z,0.00
2018-04-16T05:29:48.814Z,0.04
2018-04-16T05:30:48.760Z,0.08
2018-04-16T05:31:48.670Z,0.04
2018-04-16T05:32:49.065Z,0.36
2018-04-16T05:33:51.095Z,0.12
2018-04-16T05:34:49.131Z,0.40
2018-04-16T05:35:49.069Z,0.92
2018-04-16T05:36:49.068Z,0.52
2018-04-16T05:37:51.126Z,0.04
2018-04-16T05:38:48.726Z,0.32
2018-04-16T05:39:48.847Z,1.64
2018-04-16T05:40:48.798Z,1.08
2018-04-16T05:41:48.590Z,0.80
2018-04-16T05:42:48.703Z,0.84
2018-04-16T05:43:48.734Z,0.36
2018-04-16T05:44:51.121Z,0.04
2018-04-16T05:45:51.051Z,0.20
2018-04-16T05:46:49.096Z,0.44
2018-04-16T05:47:49.139Z,2.60
2018-04-16T05:48:48.606Z,1.40
2018-04-16T05:49:49.056Z,0.68
2018-04-16T05:50:48.645Z,0.80
2018-04-16T05:51:51.076Z,0.04
2018-04-16T05:52:48.792Z,0.96
2018-04-16T05:53:48.779Z,1.64
2018-04-16T05:54:48.817Z,0.60
2018-04-16T05:55:48.663Z,1.20
2018-04-16T05:56:51.095Z,0.00
2018-04-16T05:57:49.110Z,0.04
2018-04-16T05:58:48.687Z,0.04
2018-04-16T05:59:48.798Z,0.20
2018-04-16T06:00:48.844Z,1.56
2018-04-16T06:01:48.870Z,0.40
2018-04-16T06:02:48.935Z,1.08
2018-04-16T06:03:48.913Z,1.88
2018-04-16T06:04:48.961Z,0.76
2018-04-16T06:05:48.956Z,1.00
2018-04-16T06:06:51.079Z,0.00
2018-04-16T06:07:48.934Z,0.00
2018-04-16T06:08:48.984Z,0.12
2018-04-16T06:09:51.126Z,0.20
2018-04-16T06:10:51.022Z,0.56
2018-04-16T06:11:46.070Z,0.88
2018-04-16T06:12:49.219Z,1.12
2018-04-16T06:13:48.834Z,1.16
2018-04-16T06:14:48.967Z,1.92
2018-04-16T06:15:48.862Z,0.64
2018-04-16T06:16:48.636Z,1.28
2018-04-16T06:17:49.059Z,0.60
2018-04-16T06:18:48.790Z,0.60
2018-04-16T06:19:48.920Z,1.00
2018-04-16T06:20:48.863Z,0.40
2018-04-16T06:22:16.227Z,0.08
2018-04-16T06:22:48.719Z,0.08
2018-04-16T06:23:48.766Z,1.24
2018-04-16T06:24:48.991Z,0.64
2018-04-16T06:25:49.044Z,1.44
2018-04-16T06:26:48.746Z,1.68
2018-04-16T06:27:48.856Z,2.08
2018-04-16T06:28:48.793Z,2.12
2018-04-16T06:29:49.158Z,0.60
2018-04-16T06:30:48.713Z,0.88
2018-04-16T06:32:25.739Z,0.24
2018-04-16T06:33:25.752Z,0.20
2018-04-16T06:34:23.699Z,1.64
2018-04-16T06:35:23.270Z,1.60
2018-04-16T06:36:25.839Z,0.12
2018-04-16T06:37:25.771Z,0.04
2018-04-16T06:38:28.824Z,0.08
2018-04-16T06:39:23.758Z,0.84
2018-04-16T06:40:23.672Z,1.12
2018-04-16T06:41:23.566Z,1.08
2018-04-16T06:42:23.668Z,1.56
2018-04-16T06:43:23.689Z,1.36
2018-04-16T06:44:23.651Z,2.08
2018-04-16T06:45:23.697Z,1.56
2018-04-16T06:46:23.700Z,2.96
2018-04-16T06:47:23.824Z,1.40
2018-04-16T06:48:23.391Z,1.64
2018-04-16T06:49:23.831Z,1.72
2018-04-16T06:50:25.768Z,0.00
2018-04-16T06:51:23.371Z,1.16
2018-04-16T06:52:23.647Z,1.88
2018-04-16T06:53:23.591Z,1.68
2018-04-16T06:54:23.718Z,1.60
2018-04-16T06:55:23.624Z,1.00
2018-04-16T06:56:25.793Z,0.28
2018-04-16T06:57:23.662Z,1.44
2018-04-16T06:58:23.650Z,1.44
2018-04-16T06:59:23.547Z,1.12
2018-04-16T07:00:54.778Z,0.32
2018-04-16T07:01:25.540Z,0.56
2018-04-16T07:02:25.526Z,1.36
2018-04-16T07:03:25.535Z,3.24
2018-04-16T07:04:25.570Z,3.08
2018-04-16T07:05:25.497Z,3.56
2018-04-16T07:06:25.515Z,2.92
2018-04-16T07:07:25.568Z,1.20
2018-04-16T07:08:25.563Z,1.72
2018-04-16T07:09:46.599Z,0.76
2018-04-16T07:10:26.459Z,0.24
2018-04-16T07:11:26.406Z,0.16
2018-04-16T07:12:24.150Z,3.12
2018-04-16T07:13:24.054Z,3.12
2018-04-16T07:14:24.152Z,1.32
2018-04-16T07:15:24.063Z,2.00
2018-04-16T07:16:24.094Z,2.60
2018-04-16T07:17:23.981Z,3.08
2018-04-16T07:18:24.355Z,3.16
2018-04-16T07:19:24.427Z,3.44
2018-04-16T07:20:23.957Z,2.12
2018-04-16T07:21:24.358Z,3.04
2018-04-16T07:22:24.007Z,2.76
2018-04-16T07:23:24.024Z,0.80
2018-04-16T07:24:26.454Z,0.24
2018-04-16T07:25:24.191Z,2.72
2018-04-16T07:26:24.182Z,3.44
2018-04-16T07:27:24.456Z,2.16
2018-04-16T07:28:26.432Z,0.32
2018-04-16T07:29:24.391Z,2.76
2018-04-16T07:30:23.923Z,2.48
2018-04-16T07:31:23.638Z,2.04
2018-04-16T07:32:24.335Z,3.20
2018-04-16T07:33:23.907Z,3.12
2018-04-16T07:34:59.587Z,3.72
2018-04-16T07:36:01.812Z,0.48
2018-04-16T07:36:59.398Z,4.72
2018-04-16T07:37:59.510Z,3.40
2018-04-16T07:39:01.747Z,0.40
2018-04-16T07:39:59.422Z,3.60
2018-04-16T07:40:59.539Z,3.68
2018-04-16T07:41:59.539Z,3.40
2018-04-16T07:42:59.605Z,5.76
2018-04-16T07:43:59.700Z,2.52
2018-04-16T07:44:59.866Z,4.12
2018-04-16T07:46:01.815Z,0.44
2018-04-16T07:46:59.813Z,6.00
2018-04-16T07:47:59.835Z,4.12
2018-04-16T07:49:01.791Z,0.36
2018-04-16T07:49:59.436Z,5.84
2018-04-16T07:50:59.787Z,4.84
2018-04-16T07:51:59.782Z,4.20
2018-04-16T07:52:59.670Z,4.52
2018-04-16T07:53:59.582Z,5.36
2018-04-16T07:54:59.695Z,3.60
2018-04-16T07:55:59.522Z,3.44
2018-04-16T07:56:59.470Z,4.36
2018-04-16T07:57:59.568Z,4.64
2018-04-16T07:59:01.835Z,0.16
2018-04-16T07:59:59.359Z,3.64
2018-04-16T08:00:59.377Z,5.48
2018-04-16T08:01:59.411Z,3.84
2018-04-16T08:02:59.498Z,2.40
2018-04-16T08:03:59.427Z,2.88
2018-04-16T08:04:59.437Z,5.32
2018-04-16T08:05:59.432Z,6.44
2018-04-16T08:06:59.872Z,6.28
2018-04-16T08:07:59.516Z,4.56
2018-04-16T08:08:59.523Z,3.68
2018-04-16T08:09:59.508Z,4.04
2018-04-16T08:10:59.661Z,4.44
2018-04-16T08:11:59.407Z,3.16
2018-04-16T08:13:01.833Z,0.32
2018-04-16T08:14:01.749Z,0.16
2018-04-16T08:15:01.780Z,0.44
2018-04-16T08:16:01.855Z,0.80
2018-04-16T08:17:01.779Z,0.48
2018-04-16T08:18:01.836Z,0.24
2018-04-16T08:19:01.765Z,0.52
2018-04-16T08:19:59.509Z,3.52
2018-04-16T08:20:59.780Z,5.24
2018-04-16T08:21:59.895Z,3.60
2018-04-16T08:23:01.829Z,0.36
2018-04-16T08:23:59.794Z,3.80
2018-04-16T08:24:59.356Z,6.88
2018-04-16T08:25:59.543Z,6.28
2018-04-16T08:26:59.595Z,3.92
2018-04-16T08:27:59.554Z,4.72
2018-04-16T08:28:59.669Z,5.72
2018-04-16T08:29:59.504Z,3.84
2018-04-16T08:30:59.568Z,3.64
2018-04-16T08:31:59.388Z,6.48
2018-04-16T08:32:59.483Z,5.96
2018-04-16T08:33:59.161Z,3.92
2018-04-16T08:34:59.976Z,5.72
2018-04-16T08:36:36.112Z,3.80
2018-04-16T08:37:38.355Z,0.24
2018-04-16T08:38:38.407Z,0.52
2018-04-16T08:39:38.355Z,0.44
2018-04-16T08:40:38.374Z,0.60
2018-04-16T08:41:36.307Z,7.24
2018-04-16T08:42:36.200Z,6.84
2018-04-16T08:43:38.339Z,0.48
2018-04-16T08:44:38.390Z,0.32
2018-04-16T08:45:38.332Z,0.36
2018-04-16T08:46:35.934Z,4.68
2018-04-16T08:47:38.366Z,0.32
2018-04-16T08:48:35.967Z,3.80
2018-04-16T08:49:38.387Z,0.36
2018-04-16T08:50:36.121Z,5.20
2018-04-16T08:51:38.378Z,0.28
2018-04-16T08:52:38.430Z,0.60
2018-04-16T08:53:38.399Z,0.20
2018-04-16T08:54:38.364Z,0.24
2018-04-16T08:55:36.067Z,4.84
2018-04-16T08:56:38.358Z,0.48
2018-04-16T08:57:38.389Z,0.48
2018-04-16T08:58:36.088Z,5.84
2018-04-16T08:59:36.084Z,5.52
2018-04-16T09:00:38.369Z,0.60
2018-04-16T09:01:38.363Z,0.28
2018-04-16T09:02:36.051Z,4.16
2018-04-16T09:03:38.379Z,0.60
2018-04-16T09:04:36.099Z,4.32
2018-04-16T09:05:38.397Z,0.24
2018-04-16T09:06:38.426Z,0.08
2018-04-16T09:07:38.362Z,0.32
2018-04-16T09:08:38.393Z,0.48
2018-04-16T09:09:36.326Z,3.88
2018-04-16T09:10:38.360Z,0.52
2018-04-16T09:11:36.179Z,3.00
2018-04-16T09:12:36.272Z,5.48
2018-04-16T09:13:38.402Z,0.52
2018-04-16T09:14:42.475Z,0.44
2018-04-16T09:15:36.273Z,4.96
2018-04-16T09:16:38.395Z,0.72
2018-04-16T09:17:36.433Z,5.52
2018-04-16T09:18:36.212Z,4.68
2018-04-16T09:19:38.334Z,0.64
2018-04-16T09:20:38.346Z,0.52
2018-04-16T09:21:38.384Z,0.52
2018-04-16T09:22:36.179Z,4.32
2018-04-16T09:23:36.099Z,6.96
2018-04-16T09:24:38.410Z,0.32
2018-04-16T09:25:36.101Z,2.48
2018-04-16T09:26:36.162Z,6.28
2018-04-16T09:27:38.433Z,0.24
2018-04-16T09:28:36.127Z,2.24
2018-04-16T09:29:38.398Z,0.44
2018-04-16T09:30:36.338Z,3.76
2018-04-16T09:31:38.387Z,0.28
2018-04-16T09:32:36.353Z,2.80
2018-04-16T09:33:35.930Z,3.56
2018-04-16T09:34:38.362Z,0.28
2018-04-16T09:35:35.667Z,3.20
2018-04-16T09:36:35.956Z,3.12
2018-04-16T09:37:38.388Z,0.24
2018-04-16T09:38:38.355Z,0.08
2018-04-16T09:39:38.445Z,0.20
2018-04-16T09:40:36.199Z,2.36
2018-04-16T09:41:38.452Z,0.16
2018-04-16T09:42:38.383Z,0.04
2018-04-16T09:43:36.135Z,1.00
2018-04-16T09:44:36.260Z,2.08
2018-04-16T09:45:38.391Z,0.24
2018-04-16T09:46:36.466Z,3.00
2018-04-16T09:47:38.390Z,0.36
2018-04-16T09:48:36.287Z,2.64
2018-04-16T09:49:36.353Z,3.00
2018-04-16T09:50:38.404Z,0.52
2018-04-16T09:51:36.201Z,6.44
2018-04-16T09:52:36.154Z,4.68
2018-04-16T09:53:36.227Z,3.16
2018-04-16T09:54:38.459Z,0.44
2018-04-16T09:55:36.214Z,4.64
2018-04-16T09:56:36.377Z,4.68
2018-04-16T09:57:36.382Z,4.20
2018-04-16T09:58:36.407Z,2.96
2018-04-16T09:59:36.366Z,3.72
2018-04-16T10:00:38.394Z,0.36
2018-04-16T10:01:36.085Z,3.44
2018-04-16T10:02:36.099Z,3.52
2018-04-16T10:03:38.386Z,0.36
2018-04-16T10:04:38.423Z,0.08
2018-04-16T10:05:38.374Z,0.16
2018-04-16T10:06:36.043Z,2.16
2018-04-16T10:07:36.124Z,1.88
2018-04-16T10:08:36.102Z,3.40
2018-04-16T10:09:38.414Z,0.20
2018-04-16T10:10:36.309Z,2.44
2018-04-16T10:11:36.359Z,3.96
2018-04-16T10:12:38.418Z,0.28
2018-04-16T10:13:35.974Z,1.80
2018-04-16T10:14:36.429Z,3.68
2018-04-16T10:15:35.998Z,2.16
2018-04-16T10:16:38.432Z,0.48
2018-04-16T10:17:38.460Z,0.32
2018-04-16T10:18:36.185Z,3.04
2018-04-16T10:19:36.212Z,1.56
2018-04-16T10:20:38.434Z,0.12
2018-04-16T10:21:36.447Z,1.16
2018-04-16T10:22:38.386Z,0.24
2018-04-16T10:23:36.347Z,2.68
2018-04-16T10:24:36.395Z,3.08
2018-04-16T10:25:36.362Z,3.28
2018-04-16T10:26:38.383Z,0.24
2018-04-16T10:27:36.211Z,1.48
2018-04-16T10:28:38.466Z,0.20
2018-04-16T10:29:36.359Z,1.88
2018-04-16T10:30:38.795Z,1.28
2018-04-16T10:31:36.367Z,1.80
2018-04-16T10:32:36.455Z,1.52
2018-04-16T10:33:38.428Z,0.00
2018-04-16T10:34:38.475Z,0.00
2018-04-16T10:35:35.872Z,0.72
2018-04-16T10:36:36.179Z,1.48
2018-04-16T10:37:36.211Z,2.44
2018-04-16T10:38:36.167Z,2.88
2018-04-16T10:39:36.120Z,3.04
2018-04-16T10:40:36.178Z,5.16
2018-04-16T10:41:36.246Z,4.96
2018-04-16T10:42:36.301Z,2.24
2018-04-16T10:44:07.039Z,0.32
2018-04-16T10:44:38.084Z,1.68
2018-04-16T10:45:38.145Z,4.52
2018-04-16T10:46:38.164Z,4.40
2018-04-16T10:47:38.112Z,1.44
2018-04-16T10:48:38.047Z,0.60
2018-04-16T10:49:38.121Z,0.84
2018-04-16T10:50:59.194Z,0.08
2018-04-16T10:51:36.678Z,0.12
2018-04-16T10:52:36.769Z,1.64
2018-04-16T10:53:36.684Z,2.16
2018-04-16T10:54:36.765Z,3.36
2018-04-16T10:55:36.924Z,2.08
2018-04-16T10:56:36.506Z,0.28
2018-04-16T10:57:36.978Z,2.24
2018-04-16T10:58:37.062Z,1.04
2018-04-16T10:59:39.021Z,0.00
2018-04-16T11:00:38.982Z,0.12
2018-04-16T11:01:39.010Z,0.24
2018-04-16T11:02:36.700Z,3.12
2018-04-16T11:03:36.751Z,1.92
2018-04-16T11:04:36.701Z,1.24
2018-04-16T11:05:38.965Z,0.24
2018-04-16T11:06:36.554Z,2.92
2018-04-16T11:07:36.575Z,1.40
2018-04-16T11:08:36.776Z,0.64
2018-04-16T11:09:36.770Z,0.56
2018-04-16T11:11:04.708Z,0.24
2018-04-16T11:11:38.783Z,0.52
2018-04-16T11:13:50.524Z,1.84
2018-04-16T11:14:50.526Z,1.56
2018-04-16T11:15:50.484Z,1.80
2018-04-16T11:16:50.564Z,2.04
2018-04-16T11:17:52.782Z,0.12
2018-04-16T11:18:52.843Z,0.36
2018-04-16T11:19:53.058Z,0.36
2018-04-16T11:20:52.791Z,0.08
2018-04-16T11:21:50.445Z,1.36
2018-04-16T11:22:50.633Z,2.52
2018-04-16T11:23:50.750Z,1.20
2018-04-16T11:24:50.630Z,1.92
2018-04-16T11:25:50.619Z,1.60
2018-04-16T11:26:50.587Z,2.80
2018-04-16T11:27:50.811Z,2.36
2018-04-16T11:29:26.614Z,2.44
2018-04-16T11:30:28.734Z,0.44
2018-04-16T11:31:26.315Z,4.00
2018-04-16T11:32:28.738Z,0.40
2018-04-16T11:33:26.358Z,5.40
2018-04-16T11:34:26.375Z,3.80
2018-04-16T11:35:26.441Z,5.24
2018-04-16T11:36:28.688Z,0.32
2018-04-16T11:37:28.731Z,0.32
2018-04-16T11:38:26.542Z,3.84
2018-04-16T11:39:26.511Z,5.24
2018-04-16T11:40:26.651Z,4.60
2018-04-16T11:41:28.687Z,0.52
2018-04-16T11:42:26.717Z,3.72
2018-04-16T11:43:26.828Z,5.28
2018-04-16T11:44:26.343Z,5.44
2018-04-16T11:45:26.339Z,3.88
2018-04-16T11:46:26.538Z,2.16
2018-04-16T11:47:26.610Z,2.64
2018-04-16T11:48:26.594Z,1.88
2018-04-16T11:49:26.538Z,3.44
2018-04-16T11:50:26.499Z,2.44
2018-04-16T11:51:26.541Z,1.40
2018-04-16T11:52:28.684Z,0.24
2018-04-16T11:53:28.717Z,0.32
2018-04-16T11:54:26.727Z,4.64
2018-04-16T11:55:28.684Z,0.08
2018-04-16T11:57:05.818Z,0.84
2018-04-16T11:58:05.844Z,2.08
2018-04-16T11:59:07.964Z,0.56
2018-04-16T12:00:07.978Z,0.60
2018-04-16T12:01:08.000Z,0.76
2018-04-16T12:02:05.572Z,7.16
2018-04-16T12:03:05.934Z,6.20
2018-04-16T12:04:05.852Z,4.48
2018-04-16T12:05:05.751Z,5.56
2018-04-16T12:06:07.966Z,0.48
2018-04-16T12:07:05.753Z,3.60
2018-04-16T12:08:05.680Z,2.36
2018-04-16T12:09:08.002Z,0.32
2018-04-16T12:10:09.528Z,6.12
2018-04-16T12:11:07.103Z,8.52
2018-04-16T12:12:07.076Z,7.52
2018-04-16T12:13:07.119Z,6.16
2018-04-16T12:14:07.096Z,4.64
2018-04-16T12:16:07.335Z,0.84
2018-04-16T12:17:05.929Z,6.00
2018-04-16T12:18:05.936Z,5.92
2018-04-16T12:19:05.755Z,6.12
2018-04-16T12:20:05.931Z,4.00
2018-04-16T12:21:05.927Z,3.32
2018-04-16T12:22:05.903Z,4.60
2018-04-16T12:23:05.765Z,3.44
2018-04-16T12:24:05.856Z,5.36
2018-04-16T12:25:05.765Z,3.56
2018-04-16T12:26:05.876Z,6.32
2018-04-16T12:27:05.851Z,8.08
2018-04-16T12:28:06.023Z,8.12
2018-04-16T12:29:05.499Z,7.12
2018-04-16T12:30:08.055Z,0.76
2018-04-16T12:31:06.028Z,8.64
2018-04-16T12:32:05.989Z,8.76
2018-04-16T12:33:05.701Z,6.52
2018-04-16T12:34:05.631Z,5.88
2018-04-16T12:35:05.571Z,7.88
2018-04-16T12:36:05.979Z,6.64
2018-04-16T12:37:05.994Z,4.28
2018-04-16T12:38:05.939Z,6.84
2018-04-16T12:39:08.033Z,0.64
2018-04-16T12:40:07.993Z,0.88
2018-04-16T12:41:05.827Z,7.92
2018-04-16T12:42:05.769Z,7.84
2018-04-16T12:43:05.822Z,5.84
2018-04-16T12:44:08.046Z,0.40
2018-04-16T12:45:05.654Z,5.68
2018-04-16T12:46:06.015Z,10.52
2018-04-16T12:47:08.057Z,0.28
2018-04-16T12:48:08.039Z,0.40
2018-04-16T12:49:07.975Z,0.60
2018-04-16T12:50:08.023Z,0.76
2018-04-16T12:51:08.049Z,0.84
2018-04-16T12:52:05.961Z,6.88
2018-04-16T12:53:05.834Z,8.44
2018-04-16T12:54:05.672Z,6.28
2018-04-16T12:55:05.647Z,9.32
2018-04-16T12:56:05.047Z,13.56
2018-04-16T12:57:05.627Z,10.80
2018-04-16T12:58:08.043Z,1.28
2018-04-16T12:59:05.655Z,9.08
2018-04-16T13:00:06.092Z,14.80
2018-04-16T13:01:05.796Z,11.24
2018-04-16T13:02:05.830Z,12.84
2018-04-16T13:03:08.076Z,1.28
2018-04-16T13:04:05.861Z,9.84
2018-04-16T13:05:05.911Z,9.92
2018-04-16T13:06:05.768Z,10.68
2018-04-16T13:07:05.636Z,11.72
2018-04-16T13:08:06.036Z,13.76
2018-04-16T13:09:05.915Z,13.60
2018-04-16T13:10:08.055Z,0.88
2018-04-16T13:11:07.999Z,0.96
2018-04-16T13:12:08.041Z,1.20
2018-04-16T13:13:05.695Z,13.84
2018-04-16T13:14:08.001Z,0.76
2018-04-16T13:15:05.915Z,9.76
2018-04-16T13:16:05.925Z,12.24
2018-04-16T13:17:08.076Z,0.80
2018-04-16T13:18:05.835Z,14.44
2018-04-16T13:19:05.790Z,14.56
2018-04-16T13:20:05.842Z,12.44
2018-04-16T13:21:05.858Z,12.52
2018-04-16T13:22:05.898Z,9.92
2018-04-16T13:23:05.934Z,14.08
2018-04-16T13:24:06.001Z,12.64
2018-04-16T13:25:05.950Z,13.76
2018-04-16T13:26:08.079Z,0.88